QTR929 RPLL-OTHH
Flight info
| Callsign | QTR929 |
|---|---|
| Flight time | N/A |
| Altitude | 36000 |
| Route | SIRCA2R SIRCA L628 GUKUM/N0507F340 L628 ARESI/K0928F360 L628 PCA G474 PLK B202 BOMPA/N0501F360 B202 UBL G473 BGO G472 PTN/N0495F380 G472 SAGOD N895 BODAR W40 AAE L639 ISLIL/N0490F400 L639 RASKI N881 KIPOL L444 VUSIN N767 ELIGO L631 MCT T508 MIXAM P899 ITRAX/N0511F340 P899 TOVOX |
| Aircraft | A35K/H-SDE2E3GHIJ3J4J5LM1ORWXY/LB1D1 |
Departure
| Time | 2026-05-04 03:31 |
|---|---|
| Airport | Ninoy Aquino International Airport (RPLL) |
Arrival
| Time | N/A |
|---|---|
| Airport | Hamad International Airport (OTHH) |
| Time | Latitude | Longitude | Altitude | Speed | Heading |
|---|---|---|---|---|---|
| 2026-05-04 03:14 | 14.51607 | 121.01555 | 74 ft | 0 kts | 45° |
| 2026-05-04 03:21 | 14.51596 | 121.01543 | 64 ft | 2 kts | 46° |
| 2026-05-04 03:21 | 14.51585 | 121.01531 | 64 ft | 2 kts | 50° |
| 2026-05-04 03:21 | 14.51575 | 121.01517 | 64 ft | 2 kts | 55° |
| 2026-05-04 03:21 | 14.51566 | 121.01502 | 64 ft | 2 kts | 68° |
| 2026-05-04 03:22 | 14.51563 | 121.01486 | 64 ft | 2 kts | 105° |
| 2026-05-04 03:22 | 14.51570 | 121.01472 | 64 ft | 1 kts | 134° |
| 2026-05-04 03:22 | 14.51572 | 121.01470 | 64 ft | 0 kts | 135° |
| 2026-05-04 03:23 | 14.51571 | 121.01471 | 65 ft | 1 kts | 135° |
| 2026-05-04 03:24 | 14.51548 | 121.01494 | 64 ft | 7 kts | 135° |
| 2026-05-04 03:24 | 14.51510 | 121.01534 | 66 ft | 8 kts | 135° |
| 2026-05-04 03:24 | 14.51460 | 121.01585 | 65 ft | 12 kts | 134° |
| 2026-05-04 03:24 | 14.51389 | 121.01660 | 64 ft | 17 kts | 135° |
| 2026-05-04 03:25 | 14.51297 | 121.01754 | 66 ft | 20 kts | 135° |
| 2026-05-04 03:25 | 14.51197 | 121.01857 | 69 ft | 20 kts | 135° |
| 2026-05-04 03:25 | 14.51118 | 121.01938 | 64 ft | 16 kts | 135° |
| 2026-05-04 03:25 | 14.51030 | 121.01955 | 70 ft | 13 kts | 216° |
| 2026-05-04 03:26 | 14.50981 | 121.01876 | 67 ft | 15 kts | 239° |
| 2026-05-04 03:26 | 14.50926 | 121.01780 | 61 ft | 16 kts | 239° |
| 2026-05-04 03:26 | 14.50867 | 121.01677 | 66 ft | 17 kts | 240° |
| 2026-05-04 03:26 | 14.50802 | 121.01559 | 64 ft | 20 kts | 240° |
| 2026-05-04 03:27 | 14.50731 | 121.01430 | 70 ft | 21 kts | 240° |
| 2026-05-04 03:27 | 14.50658 | 121.01298 | 64 ft | 21 kts | 240° |
| 2026-05-04 03:27 | 14.50583 | 121.01165 | 65 ft | 22 kts | 240° |
| 2026-05-04 03:27 | 14.50506 | 121.01027 | 64 ft | 22 kts | 239° |
| 2026-05-04 03:28 | 14.50428 | 121.00889 | 64 ft | 23 kts | 240° |
| 2026-05-04 03:28 | 14.50348 | 121.00744 | 66 ft | 24 kts | 240° |
| 2026-05-04 03:28 | 14.50267 | 121.00597 | 65 ft | 24 kts | 240° |
| 2026-05-04 03:28 | 14.50183 | 121.00446 | 63 ft | 24 kts | 240° |
| 2026-05-04 03:29 | 14.50098 | 121.00294 | 65 ft | 24 kts | 240° |
| 2026-05-04 03:29 | 14.50013 | 121.00141 | 64 ft | 25 kts | 240° |
| 2026-05-04 03:29 | 14.49945 | 121.00018 | 64 ft | 16 kts | 241° |
| 2026-05-04 03:29 | 14.49862 | 120.99973 | 71 ft | 15 kts | 166° |
| 2026-05-04 03:30 | 14.49814 | 121.00046 | 70 ft | 14 kts | 82° |
| 2026-05-04 03:30 | 14.49840 | 121.00105 | 64 ft | 0 kts | 59° |
| 2026-05-04 03:30 | 14.49887 | 121.00188 | 66 ft | 39 kts | 60° |
| 2026-05-04 03:31 | 14.50131 | 121.00632 | 64 ft | 101 kts | 60° |
| 2026-05-04 03:31 | 14.50571 | 121.01419 | 71 ft | 152 kts | 60° |
| 2026-05-04 03:31 | 14.51120 | 121.02449 | 426 ft | 167 kts | 64° |
| 2026-05-04 03:31 | 14.51674 | 121.03534 | 1067 ft | 171 kts | 63° |
| 2026-05-04 03:32 | 14.52245 | 121.04633 | 1511 ft | 181 kts | 62° |
| 2026-05-04 03:32 | 14.52912 | 121.05832 | 1879 ft | 200 kts | 60° |
| 2026-05-04 03:32 | 14.53652 | 121.07115 | 2153 ft | 221 kts | 60° |
| 2026-05-04 03:32 | 14.54469 | 121.08513 | 2591 ft | 235 kts | 60° |
| 2026-05-04 03:33 | 14.55305 | 121.09990 | 3271 ft | 239 kts | 61° |
| 2026-05-04 03:33 | 14.56155 | 121.11477 | 3911 ft | 243 kts | 58° |
| 2026-05-04 03:33 | 14.57298 | 121.12783 | 4529 ft | 248 kts | 36° |
| 2026-05-04 03:33 | 14.58906 | 121.13443 | 5168 ft | 253 kts | 9° |
| 2026-05-04 03:34 | 14.60671 | 121.13506 | 5826 ft | 257 kts | 2° |
| 2026-05-04 03:34 | 14.62474 | 121.13483 | 6469 ft | 261 kts | 2° |
| 2026-05-04 03:34 | 14.64278 | 121.13480 | 7104 ft | 263 kts | 3° |
| 2026-05-04 03:34 | 14.66121 | 121.13468 | 7694 ft | 268 kts | 0° |
| 2026-05-04 03:35 | 14.67953 | 121.13034 | 8288 ft | 277 kts | 336° |
| 2026-05-04 03:35 | 14.69438 | 121.11739 | 8903 ft | 285 kts | 306° |
| 2026-05-04 03:35 | 14.70145 | 121.09827 | 9535 ft | 290 kts | 276° |
| 2026-05-04 03:35 | 14.70169 | 121.07738 | 10176 ft | 293 kts | 269° |
| 2026-05-04 03:36 | 14.70107 | 121.05632 | 10748 ft | 296 kts | 269° |
| 2026-05-04 03:36 | 14.70063 | 121.03492 | 11347 ft | 299 kts | 269° |
| 2026-05-04 03:36 | 14.70031 | 121.01329 | 11961 ft | 301 kts | 269° |
| 2026-05-04 03:36 | 14.69798 | 120.99179 | 12525 ft | 306 kts | 255° |
| 2026-05-04 03:37 | 14.69367 | 120.97763 | 12755 ft | 315 kts | 249° |
| 2026-05-04 03:37 | 14.68572 | 120.95607 | 13085 ft | 328 kts | 248° |
| 2026-05-04 03:37 | 14.67458 | 120.92598 | 13532 ft | 345 kts | 249° |
| 2026-05-04 03:37 | 14.66597 | 120.90234 | 13839 ft | 357 kts | 249° |
| 2026-05-04 03:38 | 14.65713 | 120.87791 | 14098 ft | 369 kts | 249° |
| 2026-05-04 03:38 | 14.65114 | 120.86131 | 14262 ft | 376 kts | 249° |
| 2026-05-04 03:38 | 14.64190 | 120.83566 | 14508 ft | 386 kts | 249° |
| 2026-05-04 03:38 | 14.63238 | 120.80912 | 14751 ft | 396 kts | 249° |
| 2026-05-04 03:39 | 14.62271 | 120.78229 | 14990 ft | 405 kts | 249° |
| 2026-05-04 03:39 | 14.61272 | 120.75463 | 15219 ft | 413 kts | 249° |
| 2026-05-04 03:39 | 14.60262 | 120.72665 | 15483 ft | 419 kts | 249° |
| 2026-05-04 03:39 | 14.59238 | 120.69827 | 15837 ft | 422 kts | 249° |
| 2026-05-04 03:40 | 14.58212 | 120.66985 | 16199 ft | 425 kts | 249° |
| 2026-05-04 03:40 | 14.57194 | 120.64164 | 16561 ft | 428 kts | 249° |
| 2026-05-04 03:40 | 14.56143 | 120.61254 | 16953 ft | 430 kts | 249° |
| 2026-05-04 03:40 | 14.55093 | 120.58349 | 17327 ft | 433 kts | 249° |
| 2026-05-04 03:41 | 14.54043 | 120.55440 | 17712 ft | 436 kts | 249° |
| 2026-05-04 03:41 | 14.52973 | 120.52477 | 18107 ft | 438 kts | 249° |
| 2026-05-04 03:41 | 14.51903 | 120.49523 | 18458 ft | 440 kts | 249° |
| 2026-05-04 03:41 | 14.50833 | 120.46565 | 18798 ft | 442 kts | 249° |
| 2026-05-04 03:42 | 14.49767 | 120.43621 | 19080 ft | 445 kts | 249° |
| 2026-05-04 03:42 | 14.48671 | 120.40596 | 19436 ft | 446 kts | 249° |
| 2026-05-04 03:42 | 14.47576 | 120.37576 | 19777 ft | 448 kts | 249° |
| 2026-05-04 03:42 | 14.46535 | 120.34535 | 20089 ft | 450 kts | 253° |
| 2026-05-04 03:43 | 14.45894 | 120.31362 | 20390 ft | 453 kts | 262° |
| 2026-05-04 03:43 | 14.45542 | 120.28124 | 20698 ft | 455 kts | 265° |
| 2026-05-04 03:43 | 14.45309 | 120.24903 | 21025 ft | 456 kts | 266° |
| 2026-05-04 03:43 | 14.45118 | 120.21628 | 21347 ft | 458 kts | 266° |
| 2026-05-04 03:44 | 14.44934 | 120.18337 | 21660 ft | 461 kts | 266° |
| 2026-05-04 03:44 | 14.44736 | 120.15022 | 22014 ft | 462 kts | 266° |
| 2026-05-04 03:44 | 14.44524 | 120.11706 | 22339 ft | 464 kts | 266° |
| 2026-05-04 03:44 | 14.44297 | 120.08373 | 22655 ft | 467 kts | 266° |
| 2026-05-04 03:45 | 14.44062 | 120.05029 | 22975 ft | 469 kts | 265° |
| 2026-05-04 03:45 | 14.43820 | 120.01666 | 23303 ft | 471 kts | 265° |
| 2026-05-04 03:45 | 14.43575 | 119.98282 | 23610 ft | 473 kts | 265° |
| 2026-05-04 03:45 | 14.43330 | 119.94898 | 23894 ft | 475 kts | 265° |
| 2026-05-04 03:46 | 14.43083 | 119.91480 | 24189 ft | 477 kts | 265° |
| 2026-05-04 03:46 | 14.42835 | 119.88057 | 24491 ft | 478 kts | 265° |
| 2026-05-04 03:46 | 14.42588 | 119.84634 | 24794 ft | 480 kts | 265° |
| 2026-05-04 03:46 | 14.42342 | 119.81238 | 25118 ft | 482 kts | 265° |
| 2026-05-04 03:47 | 14.42091 | 119.77780 | 25447 ft | 484 kts | 265° |
| 2026-05-04 03:47 | 14.41843 | 119.74319 | 25781 ft | 485 kts | 265° |
| 2026-05-04 03:47 | 14.41590 | 119.70837 | 26141 ft | 487 kts | 265° |
| 2026-05-04 03:47 | 14.41334 | 119.67351 | 26502 ft | 489 kts | 265° |
| 2026-05-04 03:48 | 14.41076 | 119.63847 | 26869 ft | 491 kts | 265° |
| 2026-05-04 03:48 | 14.40817 | 119.60325 | 27255 ft | 493 kts | 265° |
| 2026-05-04 03:48 | 14.40557 | 119.56792 | 27627 ft | 495 kts | 265° |
| 2026-05-04 03:48 | 14.40295 | 119.53254 | 27992 ft | 497 kts | 265° |
| 2026-05-04 03:49 | 14.40032 | 119.49690 | 28346 ft | 499 kts | 265° |
| 2026-05-04 03:49 | 14.39764 | 119.46111 | 28681 ft | 501 kts | 265° |
| 2026-05-04 03:49 | 14.39498 | 119.42528 | 29018 ft | 503 kts | 265° |
| 2026-05-04 03:49 | 14.39231 | 119.38920 | 29336 ft | 505 kts | 265° |
| 2026-05-04 03:50 | 14.38962 | 119.35294 | 29674 ft | 507 kts | 265° |
| 2026-05-04 03:50 | 14.38693 | 119.31675 | 30112 ft | 506 kts | 265° |
| 2026-05-04 03:50 | 14.38424 | 119.28051 | 30503 ft | 504 kts | 265° |
| 2026-05-04 03:50 | 14.38156 | 119.24462 | 30903 ft | 502 kts | 265° |
| 2026-05-04 03:51 | 14.37887 | 119.20885 | 31316 ft | 500 kts | 265° |
| 2026-05-04 03:51 | 14.37619 | 119.17312 | 31738 ft | 498 kts | 265° |
| 2026-05-04 03:51 | 14.37353 | 119.13788 | 32137 ft | 496 kts | 265° |
| 2026-05-04 03:51 | 14.37085 | 119.10237 | 32523 ft | 494 kts | 265° |
| 2026-05-04 03:52 | 14.36819 | 119.06716 | 32918 ft | 492 kts | 265° |
| 2026-05-04 03:52 | 14.36553 | 119.03208 | 33323 ft | 490 kts | 265° |
| 2026-05-04 03:52 | 14.36288 | 118.99726 | 33686 ft | 488 kts | 265° |
| 2026-05-04 03:52 | 14.36021 | 118.96223 | 34036 ft | 486 kts | 265° |
| 2026-05-04 03:53 | 14.35756 | 118.92744 | 34306 ft | 485 kts | 265° |
| 2026-05-04 03:53 | 14.35491 | 118.89277 | 34593 ft | 484 kts | 265° |
| 2026-05-04 03:53 | 14.35226 | 118.85819 | 34857 ft | 484 kts | 265° |
| 2026-05-04 03:53 | 14.34962 | 118.82370 | 35119 ft | 483 kts | 265° |
| 2026-05-04 03:54 | 14.34700 | 118.78961 | 35383 ft | 482 kts | 265° |
| 2026-05-04 03:54 | 14.34435 | 118.75517 | 35632 ft | 481 kts | 264° |
| 2026-05-04 03:54 | 14.34170 | 118.72083 | 35866 ft | 481 kts | 264° |
| 2026-05-04 03:55 | 14.33633 | 118.65154 | 35942 ft | 487 kts | 264° |
| 2026-05-04 03:55 | 14.33091 | 118.58173 | 35941 ft | 487 kts | 264° |
| 2026-05-04 03:56 | 14.32549 | 118.51217 | 35941 ft | 487 kts | 264° |
| 2026-05-04 03:56 | 14.32009 | 118.44302 | 35943 ft | 487 kts | 264° |
| 2026-05-04 03:57 | 14.31461 | 118.37328 | 35944 ft | 487 kts | 264° |
| 2026-05-04 03:57 | 14.30915 | 118.30358 | 35946 ft | 487 kts | 264° |
| 2026-05-04 03:58 | 14.30086 | 118.19892 | 35944 ft | 488 kts | 264° |
| 2026-05-04 03:58 | 14.29532 | 118.12960 | 35945 ft | 488 kts | 264° |
| 2026-05-04 03:59 | 14.28973 | 118.05976 | 35945 ft | 488 kts | 264° |
| 2026-05-04 03:59 | 14.28414 | 117.98999 | 35946 ft | 488 kts | 264° |
| 2026-05-04 04:00 | 14.27855 | 117.92047 | 35942 ft | 488 kts | 264° |
| 2026-05-04 04:00 | 14.27291 | 117.85066 | 35943 ft | 488 kts | 264° |
| 2026-05-04 04:01 | 14.26726 | 117.78089 | 35948 ft | 488 kts | 264° |
| 2026-05-04 04:01 | 14.26163 | 117.71169 | 35948 ft | 487 kts | 264° |
| 2026-05-04 04:02 | 14.25593 | 117.64190 | 35945 ft | 488 kts | 264° |
| 2026-05-04 04:02 | 14.25021 | 117.57205 | 35944 ft | 488 kts | 264° |
| 2026-05-04 04:03 | 14.24451 | 117.50268 | 35944 ft | 488 kts | 264° |
| 2026-05-04 04:03 | 14.23877 | 117.43314 | 35948 ft | 488 kts | 264° |
| 2026-05-04 04:04 | 14.23301 | 117.36354 | 35950 ft | 488 kts | 264° |
| 2026-05-04 04:04 | 14.22722 | 117.29384 | 35948 ft | 488 kts | 264° |
| 2026-05-04 04:05 | 14.22138 | 117.22399 | 35948 ft | 488 kts | 264° |
| 2026-05-04 04:05 | 14.21556 | 117.15439 | 35936 ft | 489 kts | 264° |
| 2026-05-04 04:06 | 14.20968 | 117.08436 | 35951 ft | 489 kts | 264° |
| 2026-05-04 04:06 | 14.20381 | 117.01465 | 35941 ft | 489 kts | 264° |
| 2026-05-04 04:07 | 14.19794 | 116.94514 | 35950 ft | 489 kts | 264° |
| 2026-05-04 04:07 | 14.19206 | 116.87535 | 35949 ft | 489 kts | 264° |
| 2026-05-04 04:08 | 14.18610 | 116.80544 | 35950 ft | 489 kts | 264° |
| 2026-05-04 04:08 | 14.18012 | 116.73589 | 35950 ft | 489 kts | 264° |
| 2026-05-04 04:09 | 14.17410 | 116.66592 | 35951 ft | 489 kts | 264° |
| 2026-05-04 04:09 | 14.16807 | 116.59603 | 35950 ft | 489 kts | 264° |
| 2026-05-04 04:10 | 14.16205 | 116.52630 | 35937 ft | 489 kts | 264° |
| 2026-05-04 04:10 | 14.15601 | 116.45649 | 35950 ft | 489 kts | 264° |
| 2026-05-04 04:11 | 14.14994 | 116.38662 | 35952 ft | 489 kts | 264° |
| 2026-05-04 04:11 | 14.14388 | 116.31725 | 35936 ft | 489 kts | 264° |
| 2026-05-04 04:12 | 14.13776 | 116.24750 | 35954 ft | 489 kts | 264° |
| 2026-05-04 04:12 | 14.13163 | 116.17775 | 35950 ft | 489 kts | 264° |
| 2026-05-04 04:13 | 14.12548 | 116.10790 | 35949 ft | 488 kts | 264° |
| 2026-05-04 04:13 | 14.11929 | 116.03803 | 35950 ft | 488 kts | 264° |
| 2026-05-04 04:14 | 14.11312 | 115.96842 | 35948 ft | 488 kts | 264° |
| 2026-05-04 04:14 | 14.10692 | 115.89877 | 35949 ft | 488 kts | 264° |
| 2026-05-04 04:15 | 14.10069 | 115.82901 | 35951 ft | 488 kts | 264° |
| 2026-05-04 04:15 | 14.09447 | 115.75962 | 35948 ft | 488 kts | 264° |
| 2026-05-04 04:16 | 14.08822 | 115.69002 | 35950 ft | 488 kts | 264° |
| 2026-05-04 04:16 | 14.08192 | 115.62022 | 35950 ft | 488 kts | 264° |
| 2026-05-04 04:17 | 14.07563 | 115.55064 | 35945 ft | 488 kts | 264° |
| 2026-05-04 04:17 | 14.06934 | 115.48143 | 35951 ft | 488 kts | 264° |
| 2026-05-04 04:18 | 14.06300 | 115.41174 | 35936 ft | 488 kts | 264° |
| 2026-05-04 04:18 | 14.05666 | 115.34227 | 35947 ft | 488 kts | 264° |
| 2026-05-04 04:19 | 14.05026 | 115.27259 | 35954 ft | 488 kts | 264° |
| 2026-05-04 04:19 | 14.04385 | 115.20288 | 35944 ft | 488 kts | 264° |
| 2026-05-04 04:20 | 14.03746 | 115.13366 | 35937 ft | 488 kts | 264° |
| 2026-05-04 04:20 | 14.03102 | 115.06401 | 35950 ft | 488 kts | 264° |
| 2026-05-04 04:21 | 14.02455 | 114.99436 | 35950 ft | 488 kts | 264° |
| 2026-05-04 04:21 | 14.01807 | 114.92479 | 35949 ft | 488 kts | 264° |
| 2026-05-04 04:22 | 14.01161 | 114.85567 | 35947 ft | 488 kts | 264° |
| 2026-05-04 04:22 | 14.00504 | 114.78554 | 35947 ft | 487 kts | 264° |
| 2026-05-04 04:23 | 13.99852 | 114.71611 | 35939 ft | 488 kts | 264° |
| 2026-05-04 04:23 | 13.99202 | 114.64716 | 35952 ft | 487 kts | 264° |
| 2026-05-04 04:24 | 13.98545 | 114.57756 | 35947 ft | 487 kts | 264° |
| 2026-05-04 04:24 | 13.97992 | 114.51933 | 35947 ft | 488 kts | 264° |
| 2026-05-04 04:25 | 13.97383 | 114.43845 | 35954 ft | 488 kts | 269° |
| 2026-05-04 04:25 | 13.97368 | 114.38044 | 35951 ft | 488 kts | 270° |
| 2026-05-04 04:26 | 13.97419 | 114.31072 | 35945 ft | 488 kts | 270° |
| 2026-05-04 04:26 | 13.97480 | 114.24060 | 35949 ft | 488 kts | 270° |
| 2026-05-04 04:27 | 13.97532 | 114.17066 | 35948 ft | 488 kts | 270° |
| 2026-05-04 04:27 | 13.97576 | 114.10075 | 35948 ft | 488 kts | 270° |
| 2026-05-04 04:28 | 13.97618 | 114.03088 | 35938 ft | 488 kts | 270° |
| 2026-05-04 04:28 | 13.97658 | 113.96098 | 35937 ft | 488 kts | 270° |
| 2026-05-04 04:29 | 13.97696 | 113.89161 | 35948 ft | 488 kts | 270° |
| 2026-05-04 04:29 | 13.97732 | 113.82151 | 35934 ft | 488 kts | 270° |
| 2026-05-04 04:30 | 13.97767 | 113.75165 | 35949 ft | 488 kts | 270° |
| 2026-05-04 04:30 | 13.97799 | 113.68163 | 35949 ft | 488 kts | 270° |
| 2026-05-04 04:31 | 13.97829 | 113.61173 | 35946 ft | 488 kts | 270° |
| 2026-05-04 04:31 | 13.97858 | 113.54230 | 35935 ft | 488 kts | 270° |
| 2026-05-04 04:32 | 13.97884 | 113.47239 | 35946 ft | 488 kts | 270° |
| 2026-05-04 04:32 | 13.97908 | 113.40235 | 35951 ft | 488 kts | 270° |
| 2026-05-04 04:33 | 13.97930 | 113.33252 | 35935 ft | 488 kts | 270° |
| 2026-05-04 04:33 | 13.97951 | 113.26286 | 35946 ft | 488 kts | 270° |
| 2026-05-04 04:34 | 13.97969 | 113.19254 | 35949 ft | 488 kts | 270° |
| 2026-05-04 04:34 | 13.97985 | 113.12314 | 35949 ft | 488 kts | 270° |
| 2026-05-04 04:35 | 13.97999 | 113.05316 | 35946 ft | 488 kts | 270° |
| 2026-05-04 04:35 | 13.98018 | 112.98320 | 35949 ft | 488 kts | 270° |
| 2026-05-04 04:36 | 13.98028 | 112.91346 | 35948 ft | 488 kts | 270° |
| 2026-05-04 04:36 | 13.98035 | 112.84359 | 35948 ft | 487 kts | 270° |
| 2026-05-04 04:37 | 13.98047 | 112.70452 | 35934 ft | 487 kts | 270° |
| 2026-05-04 04:38 | 13.98051 | 112.63465 | 35948 ft | 487 kts | 270° |
| 2026-05-04 04:38 | 13.98053 | 112.56487 | 35948 ft | 487 kts | 270° |
| 2026-05-04 04:39 | 13.98052 | 112.49498 | 35937 ft | 487 kts | 270° |
| 2026-05-04 04:39 | 13.98050 | 112.42535 | 35946 ft | 487 kts | 270° |
| 2026-05-04 04:40 | 13.98046 | 112.35603 | 35947 ft | 486 kts | 270° |
| 2026-05-04 04:40 | 13.98040 | 112.28637 | 35951 ft | 486 kts | 270° |
| 2026-05-04 04:41 | 13.98031 | 112.21673 | 35947 ft | 485 kts | 270° |
| 2026-05-04 04:41 | 13.98021 | 112.14720 | 35946 ft | 485 kts | 270° |
| 2026-05-04 04:42 | 13.98009 | 112.07766 | 35948 ft | 485 kts | 270° |
| 2026-05-04 04:42 | 13.97995 | 112.00854 | 35947 ft | 485 kts | 270° |
| 2026-05-04 04:43 | 13.97978 | 111.93920 | 35948 ft | 485 kts | 270° |
| 2026-05-04 04:43 | 13.97960 | 111.86978 | 35935 ft | 485 kts | 270° |
| 2026-05-04 04:44 | 13.97940 | 111.80046 | 35949 ft | 484 kts | 270° |
| 2026-05-04 04:44 | 13.97918 | 111.73096 | 35943 ft | 484 kts | 270° |
| 2026-05-04 04:45 | 13.97894 | 111.66197 | 35939 ft | 484 kts | 270° |
| 2026-05-04 04:47 | 13.97793 | 111.42030 | 35948 ft | 482 kts | 270° |
| 2026-05-04 04:47 | 13.97756 | 111.35131 | 35934 ft | 482 kts | 270° |
| 2026-05-04 04:48 | 13.97718 | 111.28202 | 35951 ft | 482 kts | 270° |
| 2026-05-04 04:49 | 13.97616 | 111.10971 | 35949 ft | 481 kts | 270° |
| 2026-05-04 04:49 | 13.97572 | 111.04064 | 35944 ft | 481 kts | 270° |
| 2026-05-04 04:50 | 13.97526 | 110.97238 | 35946 ft | 481 kts | 270° |
| 2026-05-04 04:50 | 13.97478 | 110.90340 | 35946 ft | 481 kts | 270° |
| 2026-05-04 04:51 | 13.97428 | 110.83449 | 35932 ft | 481 kts | 270° |
| 2026-05-04 04:51 | 13.97376 | 110.76570 | 35946 ft | 480 kts | 270° |
| 2026-05-04 04:52 | 13.97322 | 110.69690 | 35936 ft | 480 kts | 270° |
| 2026-05-04 04:52 | 13.97267 | 110.62856 | 35936 ft | 480 kts | 270° |
| 2026-05-04 04:53 | 13.97209 | 110.55967 | 35950 ft | 481 kts | 270° |
| 2026-05-04 04:53 | 13.97150 | 110.49086 | 35940 ft | 481 kts | 270° |
| 2026-05-04 04:54 | 13.97088 | 110.42190 | 35939 ft | 481 kts | 270° |
| 2026-05-04 04:54 | 13.97025 | 110.35324 | 35935 ft | 482 kts | 269° |
| 2026-05-04 04:55 | 13.96959 | 110.28432 | 35937 ft | 482 kts | 269° |
| 2026-05-04 04:55 | 13.96891 | 110.21519 | 35952 ft | 482 kts | 269° |
| 2026-05-04 04:56 | 13.96822 | 110.14614 | 35955 ft | 482 kts | 269° |
| 2026-05-04 04:56 | 13.96750 | 110.07706 | 35942 ft | 482 kts | 269° |
| 2026-05-04 04:57 | 13.96677 | 110.00798 | 35942 ft | 482 kts | 269° |
| 2026-05-04 04:57 | 13.96612 | 109.93933 | 35944 ft | 482 kts | 269° |
| 2026-05-04 04:58 | 13.96560 | 109.87038 | 35949 ft | 483 kts | 269° |
| 2026-05-04 04:58 | 13.96506 | 109.80103 | 35948 ft | 483 kts | 269° |
| 2026-05-04 04:59 | 13.96447 | 109.73214 | 35952 ft | 484 kts | 269° |
| 2026-05-04 04:59 | 13.96384 | 109.66279 | 35961 ft | 484 kts | 269° |
| 2026-05-04 05:00 | 13.96320 | 109.59339 | 35946 ft | 485 kts | 269° |
| 2026-05-04 05:01 | 13.96220 | 109.48921 | 35957 ft | 486 kts | 269° |
| 2026-05-04 05:01 | 13.96148 | 109.41960 | 35955 ft | 486 kts | 269° |
| 2026-05-04 05:02 | 13.96074 | 109.35004 | 35949 ft | 486 kts | 269° |
| 2026-05-04 05:02 | 13.95998 | 109.28030 | 35957 ft | 487 kts | 269° |
| 2026-05-04 05:03 | 13.95921 | 109.21099 | 35961 ft | 487 kts | 269° |
| 2026-05-04 05:04 | 13.95760 | 109.07164 | 35963 ft | 487 kts | 269° |
| 2026-05-04 05:04 | 13.95754 | 109.00156 | 35964 ft | 488 kts | 271° |
| 2026-05-04 05:06 | 13.97309 | 108.72277 | 35967 ft | 488 kts | 272° |
| 2026-05-04 05:07 | 13.97643 | 108.65294 | 35971 ft | 487 kts | 272° |
| 2026-05-04 05:07 | 13.97976 | 108.58328 | 35976 ft | 487 kts | 272° |
| 2026-05-04 05:09 | 13.99455 | 108.27123 | 35981 ft | 485 kts | 272° |
| 2026-05-04 05:10 | 13.99779 | 108.20166 | 35974 ft | 486 kts | 272° |
| 2026-05-04 05:10 | 14.00102 | 108.13205 | 35978 ft | 486 kts | 272° |
| 2026-05-04 05:11 | 14.00486 | 108.06261 | 35971 ft | 487 kts | 276° |
| 2026-05-04 05:11 | 14.02217 | 107.99567 | 35965 ft | 489 kts | 293° |
| 2026-05-04 05:12 | 14.05318 | 107.93318 | 35967 ft | 490 kts | 297° |
| 2026-05-04 05:12 | 14.08598 | 107.87153 | 35962 ft | 491 kts | 297° |
| 2026-05-04 05:13 | 14.11855 | 107.81029 | 35941 ft | 490 kts | 297° |
| 2026-05-04 05:13 | 14.15117 | 107.74835 | 35953 ft | 490 kts | 297° |
| 2026-05-04 05:14 | 14.17813 | 107.69690 | 35956 ft | 491 kts | 297° |
| 2026-05-04 05:14 | 14.21054 | 107.63498 | 35954 ft | 490 kts | 297° |
| 2026-05-04 05:15 | 14.24825 | 107.56291 | 35957 ft | 490 kts | 297° |
| 2026-05-04 05:15 | 14.27536 | 107.51109 | 35937 ft | 490 kts | 297° |
| 2026-05-04 05:16 | 14.30776 | 107.44909 | 35955 ft | 490 kts | 297° |
| 2026-05-04 05:16 | 14.33989 | 107.38759 | 35960 ft | 490 kts | 297° |
| 2026-05-04 05:17 | 14.37240 | 107.32561 | 35942 ft | 490 kts | 297° |
| 2026-05-04 05:17 | 14.40481 | 107.26388 | 35963 ft | 490 kts | 297° |
| 2026-05-04 05:18 | 14.43729 | 107.20196 | 35950 ft | 490 kts | 297° |
| 2026-05-04 05:18 | 14.46981 | 107.14000 | 35965 ft | 489 kts | 297° |
| 2026-05-04 05:19 | 14.50216 | 107.07810 | 35963 ft | 489 kts | 297° |
| 2026-05-04 05:19 | 14.53445 | 107.01627 | 35950 ft | 489 kts | 297° |
| 2026-05-04 05:20 | 14.56655 | 106.95480 | 35966 ft | 489 kts | 297° |
| 2026-05-04 05:20 | 14.59893 | 106.89275 | 35951 ft | 488 kts | 297° |
| 2026-05-04 05:21 | 14.63094 | 106.83138 | 35951 ft | 488 kts | 297° |
| 2026-05-04 05:21 | 14.66312 | 106.76963 | 35967 ft | 488 kts | 297° |
| 2026-05-04 05:22 | 14.69530 | 106.70782 | 35947 ft | 488 kts | 297° |
| 2026-05-04 05:22 | 14.72744 | 106.64604 | 35949 ft | 487 kts | 297° |
| 2026-05-04 05:23 | 14.75955 | 106.58426 | 35966 ft | 487 kts | 297° |
| 2026-05-04 05:23 | 14.79141 | 106.52293 | 35957 ft | 487 kts | 297° |
| 2026-05-04 05:24 | 14.82341 | 106.46127 | 35972 ft | 487 kts | 297° |
| 2026-05-04 05:24 | 14.85547 | 106.39946 | 35960 ft | 487 kts | 297° |
| 2026-05-04 05:25 | 14.88743 | 106.33778 | 35978 ft | 487 kts | 297° |
| 2026-05-04 05:25 | 14.91939 | 106.27606 | 35964 ft | 487 kts | 297° |
| 2026-05-04 05:26 | 14.95138 | 106.21421 | 35962 ft | 487 kts | 297° |
| 2026-05-04 05:26 | 14.98315 | 106.15275 | 35980 ft | 487 kts | 297° |
| 2026-05-04 05:28 | 15.11088 | 105.90516 | 35940 ft | 488 kts | 297° |
| 2026-05-04 05:29 | 15.14278 | 105.84319 | 35936 ft | 488 kts | 297° |
| 2026-05-04 05:29 | 15.17464 | 105.78104 | 35933 ft | 488 kts | 295° |
| 2026-05-04 05:31 | 15.20825 | 105.54170 | 35941 ft | 484 kts | 272° |
| 2026-05-04 05:31 | 15.21005 | 105.50686 | 35947 ft | 484 kts | 272° |
| 2026-05-04 05:32 | 15.21383 | 105.43721 | 35949 ft | 483 kts | 272° |
| 2026-05-04 05:33 | 15.21966 | 105.33308 | 35941 ft | 483 kts | 272° |
| 2026-05-04 05:33 | 15.22353 | 105.26366 | 35950 ft | 483 kts | 272° |
| 2026-05-04 05:34 | 15.22734 | 105.19458 | 35943 ft | 482 kts | 272° |
| 2026-05-04 05:34 | 15.23117 | 105.12478 | 35936 ft | 482 kts | 272° |
| 2026-05-04 05:35 | 15.23495 | 105.05565 | 35938 ft | 482 kts | 272° |
| 2026-05-04 05:35 | 15.23870 | 104.98664 | 35935 ft | 481 kts | 272° |
| 2026-05-04 05:36 | 15.24247 | 104.91746 | 35940 ft | 481 kts | 273° |
| 2026-05-04 05:36 | 15.25547 | 104.84964 | 35937 ft | 482 kts | 289° |
| 2026-05-04 05:37 | 15.28362 | 104.78645 | 35944 ft | 483 kts | 295° |
| 2026-05-04 05:37 | 15.31412 | 104.72499 | 35940 ft | 483 kts | 296° |
| 2026-05-04 05:38 | 15.36033 | 104.63214 | 35939 ft | 483 kts | 296° |
| 2026-05-04 05:38 | 15.39080 | 104.57023 | 35944 ft | 482 kts | 295° |
| 2026-05-04 05:39 | 15.43641 | 104.47724 | 35946 ft | 482 kts | 295° |
| 2026-05-04 05:40 | 15.48196 | 104.38429 | 35947 ft | 481 kts | 295° |
| 2026-05-04 05:40 | 15.51200 | 104.32294 | 35952 ft | 481 kts | 295° |
| 2026-05-04 05:41 | 15.54233 | 104.26093 | 35952 ft | 481 kts | 295° |
| 2026-05-04 05:41 | 15.57268 | 104.19883 | 35955 ft | 481 kts | 295° |
| 2026-05-04 05:42 | 15.60291 | 104.13692 | 35956 ft | 481 kts | 295° |
| 2026-05-04 05:42 | 15.63316 | 104.07493 | 35955 ft | 481 kts | 295° |
| 2026-05-04 05:43 | 15.66337 | 104.01295 | 35961 ft | 481 kts | 295° |
| 2026-05-04 05:45 | 15.78387 | 103.76521 | 35965 ft | 481 kts | 295° |
| 2026-05-04 05:47 | 15.90416 | 103.51703 | 35969 ft | 481 kts | 295° |
| 2026-05-04 05:47 | 15.93421 | 103.45488 | 35970 ft | 481 kts | 295° |
| 2026-05-04 05:48 | 15.96422 | 103.39277 | 35973 ft | 481 kts | 295° |
| 2026-05-04 05:48 | 15.99427 | 103.33054 | 35974 ft | 481 kts | 295° |
| 2026-05-04 05:49 | 16.02407 | 103.26874 | 35977 ft | 480 kts | 295° |
| 2026-05-04 05:49 | 16.05377 | 103.20713 | 35977 ft | 480 kts | 295° |
| 2026-05-04 05:51 | 16.17330 | 102.95851 | 35995 ft | 479 kts | 295° |
| 2026-05-04 05:52 | 16.20310 | 102.89638 | 35992 ft | 479 kts | 295° |
| 2026-05-04 05:52 | 16.23284 | 102.83435 | 35991 ft | 479 kts | 295° |
| 2026-05-04 05:54 | 16.35157 | 102.58605 | 35986 ft | 480 kts | 295° |
| 2026-05-04 05:55 | 16.38131 | 102.52372 | 35985 ft | 480 kts | 295° |
| 2026-05-04 05:55 | 16.41086 | 102.46173 | 35980 ft | 481 kts | 295° |
| 2026-05-04 05:56 | 16.44059 | 102.39928 | 35974 ft | 481 kts | 295° |
| 2026-05-04 05:56 | 16.47033 | 102.33678 | 35969 ft | 482 kts | 295° |
| 2026-05-04 05:57 | 16.50012 | 102.27412 | 35967 ft | 482 kts | 295° |
| 2026-05-04 05:57 | 16.52989 | 102.21144 | 35963 ft | 483 kts | 295° |
| 2026-05-04 05:58 | 16.55966 | 102.14870 | 35963 ft | 483 kts | 295° |
| 2026-05-04 05:58 | 16.58447 | 102.09637 | 35960 ft | 483 kts | 295° |
| 2026-05-04 05:59 | 16.61909 | 102.02271 | 35959 ft | 483 kts | 292° |
| 2026-05-04 05:59 | 16.63754 | 101.95590 | 35958 ft | 480 kts | 276° |
| 2026-05-04 06:00 | 16.64353 | 101.89836 | 35964 ft | 480 kts | 274° |
| 2026-05-04 06:00 | 16.64909 | 101.82874 | 35958 ft | 481 kts | 274° |
| 2026-05-04 06:01 | 16.65446 | 101.75965 | 35955 ft | 480 kts | 274° |
| 2026-05-04 06:03 | 16.67711 | 101.48202 | 35921 ft | 481 kts | 274° |
| 2026-05-04 06:05 | 16.70235 | 101.16842 | 35912 ft | 482 kts | 274° |
| 2026-05-04 06:06 | 16.70790 | 101.09861 | 35912 ft | 483 kts | 274° |
| 2026-05-04 06:06 | 16.71339 | 101.02921 | 35906 ft | 483 kts | 274° |
| 2026-05-04 06:07 | 16.71890 | 100.95944 | 35903 ft | 482 kts | 274° |
| 2026-05-04 06:07 | 16.72439 | 100.88953 | 35899 ft | 482 kts | 274° |
| 2026-05-04 06:08 | 16.72985 | 100.81974 | 35899 ft | 482 kts | 274° |
| 2026-05-04 06:08 | 16.73527 | 100.75004 | 35894 ft | 482 kts | 274° |
| 2026-05-04 06:09 | 16.74063 | 100.68082 | 35894 ft | 483 kts | 274° |
| 2026-05-04 06:11 | 16.76206 | 100.40140 | 35882 ft | 483 kts | 274° |
| 2026-05-04 06:13 | 16.77696 | 100.12174 | 35886 ft | 483 kts | 271° |
| 2026-05-04 06:14 | 16.78547 | 99.87672 | 35874 ft | 483 kts | 272° |
| 2026-05-04 06:15 | 16.78796 | 99.80651 | 35875 ft | 483 kts | 272° |
| 2026-05-04 06:15 | 16.79040 | 99.73656 | 35877 ft | 483 kts | 272° |
| 2026-05-04 06:16 | 16.79283 | 99.66622 | 35876 ft | 483 kts | 272° |
| 2026-05-04 06:16 | 16.79524 | 99.59607 | 35876 ft | 483 kts | 272° |
| 2026-05-04 06:17 | 16.79760 | 99.52627 | 35879 ft | 483 kts | 272° |
| 2026-05-04 06:17 | 16.79996 | 99.45593 | 35879 ft | 484 kts | 272° |
| 2026-05-04 06:18 | 16.80229 | 99.38577 | 35882 ft | 484 kts | 272° |
| 2026-05-04 06:20 | 16.81138 | 99.10511 | 35897 ft | 484 kts | 272° |
| 2026-05-04 06:21 | 16.81684 | 98.92974 | 35903 ft | 484 kts | 272° |
| 2026-05-04 06:22 | 16.81900 | 98.85944 | 35907 ft | 484 kts | 272° |
| 2026-05-04 06:25 | 16.86420 | 98.37200 | 35907 ft | 485 kts | 286° |
| 2026-05-04 06:26 | 16.88337 | 98.30440 | 35898 ft | 485 kts | 286° |
| 2026-05-04 06:26 | 16.90224 | 98.23721 | 35889 ft | 485 kts | 285° |
| 2026-05-04 06:27 | 16.94928 | 98.06798 | 35884 ft | 484 kts | 285° |
| 2026-05-04 06:28 | 16.96788 | 98.00079 | 35881 ft | 483 kts | 285° |
| 2026-05-04 06:28 | 16.98666 | 97.93290 | 35876 ft | 483 kts | 285° |
| 2026-05-04 06:29 | 17.00528 | 97.86547 | 35873 ft | 483 kts | 285° |
| 2026-05-04 06:29 | 17.02180 | 97.79790 | 35871 ft | 483 kts | 283° |
| 2026-05-04 06:30 | 17.03723 | 97.72971 | 35868 ft | 483 kts | 283° |
| 2026-05-04 06:30 | 17.05296 | 97.66148 | 35867 ft | 483 kts | 283° |
| 2026-05-04 06:31 | 17.06895 | 97.59335 | 35868 ft | 482 kts | 283° |
| 2026-05-04 06:31 | 17.08502 | 97.52514 | 35869 ft | 482 kts | 283° |
| 2026-05-04 06:33 | 17.14882 | 97.25293 | 35867 ft | 482 kts | 283° |
| 2026-05-04 06:34 | 17.16473 | 97.18477 | 35870 ft | 482 kts | 283° |
| 2026-05-04 06:34 | 17.18062 | 97.11656 | 35872 ft | 482 kts | 283° |
| 2026-05-04 06:36 | 17.24382 | 96.84417 | 35869 ft | 482 kts | 283° |
| 2026-05-04 06:37 | 17.25962 | 96.77580 | 35867 ft | 482 kts | 283° |
| 2026-05-04 06:37 | 17.27534 | 96.70767 | 35861 ft | 482 kts | 283° |
| 2026-05-04 06:38 | 17.29095 | 96.63990 | 35863 ft | 482 kts | 283° |
| 2026-05-04 06:40 | 17.28504 | 96.40009 | 35867 ft | 482 kts | 253° |
| 2026-05-04 06:40 | 17.27518 | 96.36652 | 35867 ft | 482 kts | 253° |
| 2026-05-04 06:40 | 17.25543 | 96.29948 | 35868 ft | 482 kts | 253° |
| 2026-05-04 06:41 | 17.23614 | 96.23310 | 35873 ft | 482 kts | 254° |
| 2026-05-04 06:41 | 17.21667 | 96.16554 | 35877 ft | 482 kts | 254° |
| 2026-05-04 06:42 | 17.19726 | 96.09819 | 35883 ft | 482 kts | 254° |
| 2026-05-04 06:44 | 17.11969 | 95.83012 | 35882 ft | 483 kts | 253° |
| 2026-05-04 06:44 | 17.10025 | 95.76316 | 35880 ft | 483 kts | 253° |
| 2026-05-04 06:45 | 17.08069 | 95.69589 | 35881 ft | 483 kts | 253° |
| 2026-05-04 06:45 | 17.06112 | 95.62870 | 35882 ft | 483 kts | 253° |
| 2026-05-04 06:46 | 17.04150 | 95.56139 | 35883 ft | 483 kts | 253° |
| 2026-05-04 06:46 | 17.02185 | 95.49405 | 35878 ft | 483 kts | 253° |
| 2026-05-04 06:48 | 16.94318 | 95.22554 | 35874 ft | 484 kts | 253° |
| 2026-05-04 06:50 | 16.86728 | 94.96771 | 35871 ft | 485 kts | 253° |
| 2026-05-04 06:51 | 16.84736 | 94.90028 | 35871 ft | 485 kts | 253° |
| 2026-05-04 06:51 | 16.82818 | 94.83286 | 35872 ft | 484 kts | 258° |
| 2026-05-04 06:52 | 16.82300 | 94.76366 | 36087 ft | 482 kts | 275° |
| 2026-05-04 06:52 | 16.82838 | 94.72930 | 36429 ft | 479 kts | 284° |
| 2026-05-04 06:52 | 16.83883 | 94.69621 | 36778 ft | 477 kts | 291° |
| 2026-05-04 06:53 | 16.85137 | 94.66418 | 37104 ft | 476 kts | 292° |
| 2026-05-04 06:53 | 16.86448 | 94.63245 | 37415 ft | 475 kts | 293° |
| 2026-05-04 06:53 | 16.87777 | 94.60091 | 37701 ft | 474 kts | 293° |
| 2026-05-04 06:53 | 16.89101 | 94.56954 | 37863 ft | 475 kts | 293° |
| 2026-05-04 06:54 | 16.91750 | 94.50608 | 37894 ft | 478 kts | 292° |
| 2026-05-04 06:54 | 16.94376 | 94.44248 | 37883 ft | 477 kts | 292° |
| 2026-05-04 06:55 | 16.96999 | 94.37868 | 37897 ft | 477 kts | 292° |
| 2026-05-04 06:55 | 16.99576 | 94.31591 | 37902 ft | 476 kts | 292° |
| 2026-05-04 06:57 | 17.10026 | 94.06095 | 37902 ft | 476 kts | 292° |
| 2026-05-04 06:58 | 17.12630 | 93.99724 | 37910 ft | 476 kts | 292° |
| 2026-05-04 06:58 | 17.15229 | 93.93362 | 37892 ft | 476 kts | 292° |
| 2026-05-04 06:59 | 17.17828 | 93.86990 | 37907 ft | 476 kts | 292° |
| 2026-05-04 06:59 | 17.20402 | 93.80673 | 37909 ft | 475 kts | 292° |
| 2026-05-04 07:01 | 17.30756 | 93.55200 | 37907 ft | 475 kts | 292° |
| 2026-05-04 07:02 | 17.33320 | 93.48875 | 37903 ft | 475 kts | 292° |
| 2026-05-04 07:02 | 17.35898 | 93.42507 | 37904 ft | 475 kts | 292° |
| 2026-05-04 07:03 | 17.38486 | 93.36111 | 37902 ft | 475 kts | 292° |
| 2026-05-04 07:03 | 17.41061 | 93.29738 | 37898 ft | 475 kts | 292° |
| 2026-05-04 07:04 | 17.43623 | 93.23391 | 37899 ft | 475 kts | 292° |
| 2026-05-04 07:04 | 17.46192 | 93.17021 | 37917 ft | 475 kts | 292° |
| 2026-05-04 07:05 | 17.48762 | 93.10640 | 37900 ft | 475 kts | 292° |
| 2026-05-04 07:05 | 17.51334 | 93.04247 | 37903 ft | 475 kts | 292° |
| 2026-05-04 07:06 | 17.55166 | 92.94710 | 37900 ft | 475 kts | 291° |
| 2026-05-04 07:07 | 17.57732 | 92.88315 | 37901 ft | 475 kts | 291° |
| 2026-05-04 07:09 | 17.67949 | 92.62785 | 37901 ft | 475 kts | 291° |
| 2026-05-04 07:09 | 17.70507 | 92.56377 | 37902 ft | 475 kts | 291° |
| 2026-05-04 07:10 | 17.73038 | 92.50029 | 37903 ft | 475 kts | 291° |
| 2026-05-04 07:12 | 17.83222 | 92.24414 | 37903 ft | 475 kts | 291° |
| 2026-05-04 07:12 | 17.85760 | 92.18011 | 37899 ft | 475 kts | 291° |
| 2026-05-04 07:13 | 17.88295 | 92.11612 | 37905 ft | 475 kts | 291° |
| 2026-05-04 07:13 | 17.90811 | 92.05250 | 37904 ft | 475 kts | 291° |
| 2026-05-04 07:14 | 17.97078 | 91.89226 | 37899 ft | 474 kts | 291° |
| 2026-05-04 07:15 | 17.99537 | 91.82842 | 37899 ft | 474 kts | 291° |
| 2026-05-04 07:15 | 18.02014 | 91.76423 | 37899 ft | 474 kts | 291° |
| 2026-05-04 07:16 | 18.04499 | 91.69985 | 37894 ft | 474 kts | 290° |
| 2026-05-04 07:16 | 18.06979 | 91.63556 | 37897 ft | 474 kts | 290° |
| 2026-05-04 07:17 | 18.09452 | 91.57136 | 37895 ft | 474 kts | 290° |
| 2026-05-04 07:17 | 18.11907 | 91.50754 | 37898 ft | 474 kts | 290° |
| 2026-05-04 07:18 | 18.14377 | 91.44328 | 37898 ft | 473 kts | 290° |
| 2026-05-04 07:18 | 18.16849 | 91.37888 | 37899 ft | 473 kts | 290° |
| 2026-05-04 07:19 | 18.19292 | 91.31518 | 37896 ft | 473 kts | 290° |
| 2026-05-04 07:19 | 18.21756 | 91.25083 | 37900 ft | 473 kts | 290° |
| 2026-05-04 07:20 | 18.24213 | 91.18662 | 37896 ft | 473 kts | 290° |
| 2026-05-04 07:20 | 18.26673 | 91.12224 | 37897 ft | 473 kts | 290° |
| 2026-05-04 07:22 | 18.36455 | 90.86550 | 37895 ft | 473 kts | 290° |
| 2026-05-04 07:23 | 18.38898 | 90.80118 | 37894 ft | 473 kts | 290° |
| 2026-05-04 07:23 | 18.41342 | 90.73677 | 37893 ft | 473 kts | 290° |
| 2026-05-04 07:24 | 18.43780 | 90.67246 | 37895 ft | 473 kts | 290° |
| 2026-05-04 07:24 | 18.46218 | 90.60805 | 37893 ft | 473 kts | 290° |
| 2026-05-04 07:26 | 18.55933 | 90.35069 | 37890 ft | 474 kts | 290° |
| 2026-05-04 07:27 | 18.58359 | 90.28622 | 37890 ft | 474 kts | 290° |
| 2026-05-04 07:27 | 18.60791 | 90.22152 | 37890 ft | 474 kts | 290° |
| 2026-05-04 07:28 | 18.63216 | 90.15692 | 37889 ft | 474 kts | 290° |
| 2026-05-04 07:28 | 18.65626 | 90.09266 | 37889 ft | 474 kts | 290° |
| 2026-05-04 07:29 | 18.68046 | 90.02806 | 37889 ft | 474 kts | 290° |
| 2026-05-04 07:29 | 18.70468 | 89.96332 | 37890 ft | 474 kts | 290° |
| 2026-05-04 07:30 | 18.72883 | 89.89869 | 37889 ft | 474 kts | 290° |
| 2026-05-04 07:30 | 18.75302 | 89.83386 | 37887 ft | 474 kts | 290° |
| 2026-05-04 07:31 | 18.77703 | 89.76944 | 37887 ft | 474 kts | 290° |
| 2026-05-04 07:33 | 18.87329 | 89.51042 | 37879 ft | 474 kts | 290° |
| 2026-05-04 07:33 | 18.89736 | 89.44547 | 37882 ft | 475 kts | 290° |
| 2026-05-04 07:34 | 18.92124 | 89.38093 | 37880 ft | 475 kts | 290° |
| 2026-05-04 07:34 | 18.94530 | 89.31584 | 37881 ft | 475 kts | 290° |
| 2026-05-04 07:35 | 18.96928 | 89.25087 | 37876 ft | 475 kts | 290° |
| 2026-05-04 07:35 | 18.99329 | 89.18575 | 37879 ft | 475 kts | 290° |
| 2026-05-04 07:36 | 19.01707 | 89.12116 | 37877 ft | 474 kts | 290° |
| 2026-05-04 07:38 | 19.11265 | 88.86078 | 37872 ft | 475 kts | 290° |
| 2026-05-04 07:38 | 19.13247 | 88.80665 | 37871 ft | 475 kts | 290° |
| 2026-05-04 07:39 | 19.15637 | 88.74124 | 37874 ft | 475 kts | 290° |
| 2026-05-04 07:39 | 19.18020 | 88.67598 | 37872 ft | 475 kts | 290° |
| 2026-05-04 07:40 | 19.20423 | 88.61127 | 37871 ft | 475 kts | 291° |
| 2026-05-04 07:40 | 19.22921 | 88.54630 | 37867 ft | 475 kts | 291° |
| 2026-05-04 07:41 | 19.25412 | 88.48145 | 37868 ft | 475 kts | 291° |
| 2026-05-04 07:41 | 19.27884 | 88.41664 | 37871 ft | 475 kts | 291° |
| 2026-05-04 07:42 | 19.30333 | 88.35214 | 37868 ft | 475 kts | 291° |
| 2026-05-04 07:42 | 19.32804 | 88.28700 | 37865 ft | 475 kts | 291° |
| 2026-05-04 07:43 | 19.35261 | 88.22213 | 37864 ft | 475 kts | 291° |
| 2026-05-04 07:43 | 19.37721 | 88.15715 | 37864 ft | 475 kts | 291° |
| 2026-05-04 07:44 | 19.40173 | 88.09226 | 37861 ft | 474 kts | 291° |
| 2026-05-04 07:44 | 19.42613 | 88.02762 | 37860 ft | 474 kts | 291° |
| 2026-05-04 07:45 | 19.45067 | 87.96255 | 37864 ft | 474 kts | 291° |
| 2026-05-04 07:45 | 19.47507 | 87.89776 | 37864 ft | 474 kts | 291° |
| 2026-05-04 07:46 | 19.49952 | 87.83274 | 37863 ft | 473 kts | 290° |
| 2026-05-04 07:46 | 19.52369 | 87.76840 | 37859 ft | 473 kts | 290° |
| 2026-05-04 07:47 | 19.54802 | 87.70355 | 37856 ft | 472 kts | 290° |
| 2026-05-04 07:49 | 19.64466 | 87.44515 | 37857 ft | 471 kts | 290° |
| 2026-05-04 07:49 | 19.66874 | 87.38058 | 37854 ft | 470 kts | 290° |
| 2026-05-04 07:50 | 19.69270 | 87.31622 | 37855 ft | 470 kts | 290° |
| 2026-05-04 07:50 | 19.71670 | 87.25170 | 37853 ft | 470 kts | 290° |
| 2026-05-04 07:51 | 19.74071 | 87.18705 | 37850 ft | 470 kts | 290° |
| 2026-05-04 07:51 | 19.76471 | 87.12235 | 37854 ft | 470 kts | 290° |
| 2026-05-04 07:52 | 19.78865 | 87.05773 | 37844 ft | 470 kts | 290° |
| 2026-05-04 07:52 | 19.81257 | 86.99309 | 37845 ft | 470 kts | 290° |
| 2026-05-04 07:54 | 19.90780 | 86.73491 | 37845 ft | 470 kts | 290° |
| 2026-05-04 07:55 | 19.93147 | 86.67067 | 37845 ft | 469 kts | 290° |
| 2026-05-04 07:55 | 19.95515 | 86.60610 | 37846 ft | 469 kts | 289° |
| 2026-05-04 07:56 | 19.97887 | 86.54131 | 37845 ft | 469 kts | 289° |
| 2026-05-04 07:56 | 20.00254 | 86.47660 | 37847 ft | 469 kts | 289° |
| 2026-05-04 07:57 | 20.02617 | 86.41197 | 37841 ft | 469 kts | 289° |
| 2026-05-04 07:57 | 20.04983 | 86.34718 | 37845 ft | 469 kts | 289° |
| 2026-05-04 07:58 | 20.07333 | 86.28274 | 37844 ft | 469 kts | 289° |
| 2026-05-04 07:58 | 20.09697 | 86.21783 | 37841 ft | 469 kts | 289° |
| 2026-05-04 07:59 | 20.12053 | 86.15309 | 37833 ft | 469 kts | 289° |
| 2026-05-04 07:59 | 20.14417 | 86.08826 | 37833 ft | 469 kts | 289° |
| 2026-05-04 08:00 | 20.16766 | 86.02387 | 37833 ft | 469 kts | 289° |
| 2026-05-04 08:02 | 20.25098 | 85.76152 | 37827 ft | 466 kts | 277° |
| 2026-05-04 08:02 | 20.25985 | 85.69367 | 37838 ft | 466 kts | 276° |
| 2026-05-04 08:03 | 20.26825 | 85.62510 | 37819 ft | 466 kts | 276° |
| 2026-05-04 08:03 | 20.27667 | 85.55716 | 37813 ft | 466 kts | 276° |
| 2026-05-04 08:04 | 20.28525 | 85.48866 | 37826 ft | 466 kts | 276° |
| 2026-05-04 08:04 | 20.29386 | 85.42009 | 37823 ft | 466 kts | 276° |
| 2026-05-04 08:05 | 20.30243 | 85.35151 | 37818 ft | 466 kts | 276° |
| 2026-05-04 08:05 | 20.31095 | 85.28306 | 37819 ft | 466 kts | 276° |
| 2026-05-04 08:06 | 20.31946 | 85.21452 | 37811 ft | 466 kts | 276° |
| 2026-05-04 08:06 | 20.32795 | 85.14587 | 37809 ft | 466 kts | 276° |
| 2026-05-04 08:08 | 20.36150 | 84.87239 | 37805 ft | 466 kts | 276° |
| 2026-05-04 08:11 | 20.39881 | 84.56395 | 37816 ft | 466 kts | 276° |
| 2026-05-04 08:11 | 20.41107 | 84.46153 | 37809 ft | 466 kts | 275° |
| 2026-05-04 08:12 | 20.41926 | 84.39287 | 37807 ft | 466 kts | 275° |
| 2026-05-04 08:12 | 20.42743 | 84.32421 | 37811 ft | 467 kts | 275° |
| 2026-05-04 08:13 | 20.43556 | 84.25552 | 37819 ft | 467 kts | 275° |
| 2026-05-04 08:13 | 20.44368 | 84.18676 | 37798 ft | 467 kts | 275° |
| 2026-05-04 08:14 | 20.45171 | 84.11848 | 37808 ft | 467 kts | 275° |
| 2026-05-04 08:16 | 20.48381 | 83.84324 | 37785 ft | 468 kts | 275° |
| 2026-05-04 08:16 | 20.49178 | 83.77427 | 37785 ft | 468 kts | 275° |
| 2026-05-04 08:17 | 20.49972 | 83.70539 | 37792 ft | 468 kts | 275° |
| 2026-05-04 08:17 | 20.50765 | 83.63634 | 37783 ft | 468 kts | 275° |
| 2026-05-04 08:19 | 20.53904 | 83.36051 | 37789 ft | 469 kts | 275° |
| 2026-05-04 08:20 | 20.54683 | 83.29144 | 37782 ft | 469 kts | 275° |
| 2026-05-04 08:20 | 20.55460 | 83.22228 | 37782 ft | 469 kts | 275° |
| 2026-05-04 08:21 | 20.56228 | 83.15363 | 37799 ft | 469 kts | 275° |
| 2026-05-04 08:21 | 20.56999 | 83.08454 | 37791 ft | 469 kts | 275° |
| 2026-05-04 08:22 | 20.57768 | 83.01539 | 37796 ft | 469 kts | 275° |
| 2026-05-04 08:24 | 20.61337 | 82.73974 | 37805 ft | 469 kts | 276° |
| 2026-05-04 08:24 | 20.62260 | 82.67113 | 37807 ft | 468 kts | 276° |
| 2026-05-04 08:25 | 20.63176 | 82.60230 | 37810 ft | 468 kts | 276° |
| 2026-05-04 08:25 | 20.64091 | 82.53338 | 37815 ft | 468 kts | 276° |
| 2026-05-04 08:27 | 20.67574 | 82.26946 | 37820 ft | 468 kts | 276° |
| 2026-05-04 08:28 | 20.68476 | 82.20056 | 37820 ft | 468 kts | 276° |
| 2026-05-04 08:28 | 20.69375 | 82.13171 | 37822 ft | 468 kts | 276° |
| 2026-05-04 08:29 | 20.70268 | 82.06302 | 37819 ft | 468 kts | 276° |
| 2026-05-04 08:31 | 20.73902 | 81.78763 | 37815 ft | 468 kts | 276° |
| 2026-05-04 08:33 | 20.77565 | 81.51168 | 37808 ft | 468 kts | 276° |
| 2026-05-04 08:35 | 20.81174 | 81.23631 | 37805 ft | 468 kts | 276° |
| 2026-05-04 08:35 | 20.82071 | 81.16744 | 37799 ft | 468 kts | 276° |
| 2026-05-04 08:37 | 20.85190 | 80.92623 | 37803 ft | 468 kts | 276° |
| 2026-05-04 08:38 | 20.86073 | 80.85784 | 37805 ft | 468 kts | 276° |
| 2026-05-04 08:38 | 20.86954 | 80.78873 | 37800 ft | 468 kts | 276° |
| 2026-05-04 08:40 | 20.90444 | 80.51352 | 37803 ft | 468 kts | 276° |
| 2026-05-04 08:41 | 20.91316 | 80.44434 | 37799 ft | 468 kts | 276° |
| 2026-05-04 08:41 | 20.92185 | 80.37517 | 37793 ft | 468 kts | 276° |
| 2026-05-04 08:42 | 20.93043 | 80.30667 | 37795 ft | 468 kts | 276° |
| 2026-05-04 08:42 | 20.93905 | 80.23758 | 37791 ft | 468 kts | 276° |
| 2026-05-04 08:43 | 20.94761 | 80.16867 | 37792 ft | 467 kts | 276° |
| 2026-05-04 08:43 | 20.95612 | 80.10000 | 37789 ft | 467 kts | 276° |
| 2026-05-04 08:44 | 20.96462 | 80.03122 | 37784 ft | 467 kts | 276° |
| 2026-05-04 08:46 | 20.99832 | 79.75618 | 37780 ft | 466 kts | 276° |
| 2026-05-04 08:46 | 21.00664 | 79.68768 | 37773 ft | 465 kts | 276° |
| 2026-05-04 08:47 | 21.01498 | 79.61878 | 37771 ft | 465 kts | 276° |
| 2026-05-04 08:47 | 21.02328 | 79.55001 | 37770 ft | 465 kts | 276° |
| 2026-05-04 08:48 | 21.03154 | 79.48128 | 37771 ft | 465 kts | 276° |
| 2026-05-04 08:48 | 21.03971 | 79.41306 | 37771 ft | 465 kts | 276° |
| 2026-05-04 08:49 | 21.04794 | 79.34418 | 37769 ft | 464 kts | 276° |
| 2026-05-04 08:50 | 21.07009 | 79.15740 | 37774 ft | 464 kts | 276° |
| 2026-05-04 08:51 | 21.07525 | 79.11370 | 37775 ft | 464 kts | 276° |
| 2026-05-04 08:51 | 21.08618 | 79.04573 | 37778 ft | 465 kts | 285° |
| 2026-05-04 08:52 | 21.09507 | 79.01469 | 37773 ft | 465 kts | 286° |
| 2026-05-04 08:52 | 21.09845 | 79.00349 | 37774 ft | 465 kts | 286° |
| 2026-05-04 08:54 | 21.18150 | 78.74078 | 37775 ft | 464 kts | 287° |
| 2026-05-04 08:55 | 21.20202 | 78.67577 | 37781 ft | 464 kts | 287° |
| 2026-05-04 08:55 | 21.22270 | 78.61007 | 37782 ft | 464 kts | 287° |
| 2026-05-04 09:01 | 21.42572 | 77.96023 | 37802 ft | 462 kts | 286° |
| 2026-05-04 09:01 | 21.44601 | 77.89476 | 37802 ft | 461 kts | 286° |
| 2026-05-04 09:02 | 21.46624 | 77.82935 | 37803 ft | 461 kts | 286° |
| 2026-05-04 09:02 | 21.48645 | 77.76394 | 37800 ft | 460 kts | 286° |
| 2026-05-04 09:03 | 21.50650 | 77.69895 | 37803 ft | 460 kts | 286° |
| 2026-05-04 09:03 | 21.52687 | 77.63390 | 37802 ft | 460 kts | 287° |
| 2026-05-04 09:04 | 21.54789 | 77.56908 | 37803 ft | 460 kts | 287° |
| 2026-05-04 09:04 | 21.56889 | 77.50433 | 37803 ft | 459 kts | 287° |
| 2026-05-04 09:05 | 21.58985 | 77.43923 | 37804 ft | 458 kts | 287° |
| 2026-05-04 09:05 | 21.61059 | 77.37456 | 37805 ft | 458 kts | 287° |
| 2026-05-04 09:06 | 21.63200 | 77.31037 | 37803 ft | 458 kts | 288° |
| 2026-05-04 09:08 | 21.71933 | 77.05360 | 37798 ft | 456 kts | 288° |
| 2026-05-04 09:08 | 21.74094 | 76.98942 | 37798 ft | 455 kts | 288° |
| 2026-05-04 09:09 | 21.76251 | 76.92527 | 37798 ft | 455 kts | 288° |
| 2026-05-04 09:09 | 21.78402 | 76.86124 | 37799 ft | 455 kts | 288° |
| 2026-05-04 09:10 | 21.80548 | 76.79726 | 37802 ft | 454 kts | 288° |
| 2026-05-04 09:10 | 21.82690 | 76.73332 | 37801 ft | 454 kts | 288° |
| 2026-05-04 09:11 | 21.84815 | 76.66979 | 37796 ft | 454 kts | 288° |
| 2026-05-04 09:11 | 21.86948 | 76.60590 | 37793 ft | 454 kts | 288° |
| 2026-05-04 09:12 | 21.89081 | 76.54194 | 37802 ft | 453 kts | 288° |
| 2026-05-04 09:14 | 21.97208 | 76.29733 | 37806 ft | 452 kts | 288° |
| 2026-05-04 09:14 | 21.99324 | 76.23340 | 37807 ft | 452 kts | 287° |
| 2026-05-04 09:15 | 22.01437 | 76.16950 | 37812 ft | 452 kts | 287° |
| 2026-05-04 09:15 | 22.03542 | 76.10574 | 37814 ft | 452 kts | 287° |
| 2026-05-04 09:17 | 22.12650 | 75.81689 | 37822 ft | 452 kts | 286° |
| 2026-05-04 09:18 | 22.14599 | 75.75289 | 37818 ft | 452 kts | 286° |
| 2026-05-04 09:18 | 22.16565 | 75.68853 | 37824 ft | 452 kts | 286° |
| 2026-05-04 09:19 | 22.18535 | 75.62398 | 37823 ft | 452 kts | 286° |
| 2026-05-04 09:19 | 22.20497 | 75.55953 | 37823 ft | 452 kts | 286° |
| 2026-05-04 09:20 | 22.22449 | 75.49530 | 37824 ft | 452 kts | 286° |
| 2026-05-04 09:20 | 22.24405 | 75.43086 | 37820 ft | 452 kts | 286° |
| 2026-05-04 09:21 | 22.26357 | 75.36642 | 37820 ft | 452 kts | 286° |
| 2026-05-04 09:21 | 22.28300 | 75.30217 | 37816 ft | 452 kts | 286° |
| 2026-05-04 09:22 | 22.30248 | 75.23767 | 37809 ft | 452 kts | 286° |
| 2026-05-04 09:22 | 22.32194 | 75.17315 | 37808 ft | 452 kts | 286° |
| 2026-05-04 09:23 | 22.34140 | 75.10848 | 37805 ft | 452 kts | 286° |
| 2026-05-04 09:23 | 22.36075 | 75.04413 | 37787 ft | 452 kts | 286° |
| 2026-05-04 09:25 | 22.43811 | 74.78573 | 37780 ft | 452 kts | 286° |
| 2026-05-04 09:26 | 22.45748 | 74.72074 | 37775 ft | 452 kts | 286° |
| 2026-05-04 09:26 | 22.47656 | 74.65668 | 37772 ft | 452 kts | 286° |
| 2026-05-04 09:27 | 22.49581 | 74.59190 | 37776 ft | 452 kts | 286° |
| 2026-05-04 09:27 | 22.51499 | 74.52726 | 37771 ft | 451 kts | 286° |
| 2026-05-04 09:28 | 22.53422 | 74.46234 | 37771 ft | 451 kts | 286° |
| 2026-05-04 09:28 | 22.55322 | 74.39811 | 37769 ft | 451 kts | 286° |
| 2026-05-04 09:29 | 22.57237 | 74.33326 | 37769 ft | 451 kts | 286° |
| 2026-05-04 09:29 | 22.59147 | 74.26847 | 37768 ft | 451 kts | 286° |
| 2026-05-04 09:30 | 22.61055 | 74.20373 | 37762 ft | 451 kts | 286° |
| 2026-05-04 09:30 | 22.62974 | 74.13907 | 37765 ft | 451 kts | 286° |
| 2026-05-04 09:31 | 22.64890 | 74.07437 | 37759 ft | 451 kts | 286° |
| 2026-05-04 09:31 | 22.66796 | 74.00989 | 37753 ft | 451 kts | 286° |
| 2026-05-04 09:32 | 22.68701 | 73.94533 | 37751 ft | 451 kts | 286° |
| 2026-05-04 09:34 | 22.76300 | 73.68677 | 37732 ft | 451 kts | 286° |
| 2026-05-04 09:34 | 22.78205 | 73.62167 | 37728 ft | 450 kts | 286° |
| 2026-05-04 09:35 | 22.80095 | 73.55700 | 37722 ft | 450 kts | 286° |
| 2026-05-04 09:35 | 22.81972 | 73.49266 | 37719 ft | 450 kts | 286° |
| 2026-05-04 09:37 | 22.89507 | 73.23326 | 37702 ft | 450 kts | 287° |
| 2026-05-04 09:38 | 22.91385 | 73.16835 | 37715 ft | 450 kts | 287° |
| 2026-05-04 09:38 | 22.93243 | 73.10401 | 37716 ft | 450 kts | 287° |
| 2026-05-04 09:39 | 22.95109 | 73.03931 | 37717 ft | 450 kts | 287° |
| 2026-05-04 09:39 | 22.96983 | 72.97420 | 37697 ft | 450 kts | 287° |
| 2026-05-04 09:40 | 22.98855 | 72.90907 | 37710 ft | 451 kts | 287° |
| 2026-05-04 09:40 | 23.00704 | 72.84460 | 37705 ft | 451 kts | 287° |
| 2026-05-04 09:42 | 23.06194 | 72.58086 | 37702 ft | 453 kts | 265° |
| 2026-05-04 09:43 | 23.05321 | 72.51294 | 37693 ft | 455 kts | 263° |
| 2026-05-04 09:43 | 23.04332 | 72.44509 | 37690 ft | 455 kts | 263° |
| 2026-05-04 09:44 | 23.03355 | 72.37750 | 37701 ft | 455 kts | 263° |
| 2026-05-04 09:46 | 22.99499 | 72.10555 | 37709 ft | 456 kts | 263° |
| 2026-05-04 09:46 | 22.98527 | 72.03745 | 37708 ft | 456 kts | 263° |
| 2026-05-04 09:47 | 22.97558 | 71.96976 | 37707 ft | 456 kts | 263° |
| 2026-05-04 09:49 | 22.93629 | 71.69759 | 37711 ft | 457 kts | 263° |
| 2026-05-04 09:51 | 22.90149 | 71.45929 | 37727 ft | 457 kts | 263° |
| 2026-05-04 09:51 | 22.89146 | 71.39106 | 37732 ft | 457 kts | 263° |
| 2026-05-04 09:52 | 22.88139 | 71.32281 | 37730 ft | 458 kts | 263° |
| 2026-05-04 09:52 | 22.87137 | 71.25506 | 37736 ft | 458 kts | 263° |
| 2026-05-04 09:53 | 22.86125 | 71.18686 | 37738 ft | 458 kts | 263° |
| 2026-05-04 09:53 | 22.85113 | 71.11882 | 37740 ft | 458 kts | 263° |
| 2026-05-04 09:54 | 22.84094 | 71.05056 | 37742 ft | 458 kts | 263° |
| 2026-05-04 09:54 | 22.83071 | 70.98223 | 37746 ft | 458 kts | 263° |
| 2026-05-04 09:55 | 22.82046 | 70.91394 | 37746 ft | 459 kts | 263° |
| 2026-05-04 09:55 | 22.81092 | 70.84551 | 37746 ft | 457 kts | 268° |
| 2026-05-04 09:56 | 22.81168 | 70.77731 | 37756 ft | 455 kts | 275° |
| 2026-05-04 09:56 | 22.81593 | 70.70889 | 37750 ft | 455 kts | 276° |
| 2026-05-04 09:57 | 22.82053 | 70.64046 | 37754 ft | 455 kts | 276° |
| 2026-05-04 09:57 | 22.82497 | 70.57194 | 37758 ft | 455 kts | 275° |
| 2026-05-04 09:58 | 22.82928 | 70.50329 | 37754 ft | 455 kts | 275° |
| 2026-05-04 09:58 | 22.83350 | 70.43525 | 37757 ft | 456 kts | 275° |
| 2026-05-04 10:00 | 22.85024 | 70.16119 | 37750 ft | 456 kts | 275° |
| 2026-05-04 10:04 | 22.87781 | 69.69190 | 37948 ft | 457 kts | 275° |
| 2026-05-04 10:04 | 22.87990 | 69.65756 | 38302 ft | 455 kts | 275° |
| 2026-05-04 10:04 | 22.88211 | 69.62349 | 38565 ft | 454 kts | 275° |
| 2026-05-04 10:04 | 22.88435 | 69.58980 | 38811 ft | 453 kts | 275° |
| 2026-05-04 10:05 | 22.88660 | 69.55574 | 39050 ft | 452 kts | 275° |
| 2026-05-04 10:05 | 22.88883 | 69.52168 | 39290 ft | 451 kts | 275° |
| 2026-05-04 10:05 | 22.89102 | 69.48777 | 39528 ft | 450 kts | 275° |
| 2026-05-04 10:05 | 22.89319 | 69.45393 | 39692 ft | 451 kts | 275° |
| 2026-05-04 10:06 | 22.89535 | 69.41989 | 39723 ft | 451 kts | 275° |
| 2026-05-04 10:06 | 22.89962 | 69.35207 | 39726 ft | 450 kts | 275° |
| 2026-05-04 10:08 | 22.91430 | 69.11544 | 39721 ft | 450 kts | 275° |
| 2026-05-04 10:08 | 22.91846 | 69.04727 | 39712 ft | 450 kts | 275° |
| 2026-05-04 10:09 | 22.92255 | 68.97995 | 39715 ft | 451 kts | 275° |
| 2026-05-04 10:09 | 22.92663 | 68.91214 | 39708 ft | 451 kts | 275° |
| 2026-05-04 10:10 | 22.93070 | 68.84412 | 39714 ft | 451 kts | 275° |
| 2026-05-04 10:10 | 22.93473 | 68.77632 | 39710 ft | 451 kts | 275° |
| 2026-05-04 10:11 | 22.93874 | 68.70834 | 39711 ft | 451 kts | 275° |
| 2026-05-04 10:11 | 22.94272 | 68.64035 | 39706 ft | 451 kts | 275° |
| 2026-05-04 10:12 | 22.94666 | 68.57246 | 39710 ft | 451 kts | 275° |
| 2026-05-04 10:12 | 22.95058 | 68.50464 | 39706 ft | 451 kts | 275° |
| 2026-05-04 10:13 | 22.95444 | 68.43715 | 39709 ft | 451 kts | 275° |
| 2026-05-04 10:13 | 22.95830 | 68.36923 | 39705 ft | 451 kts | 275° |
| 2026-05-04 10:14 | 22.95945 | 68.30113 | 39706 ft | 452 kts | 271° |
| 2026-05-04 10:16 | 22.95793 | 68.02839 | 39709 ft | 451 kts | 271° |
| 2026-05-04 10:16 | 22.95790 | 67.96036 | 39704 ft | 451 kts | 271° |
| 2026-05-04 10:17 | 22.95783 | 67.89225 | 39713 ft | 451 kts | 271° |
| 2026-05-04 10:19 | 22.95831 | 67.62036 | 39709 ft | 451 kts | 271° |
| 2026-05-04 10:19 | 22.95839 | 67.55200 | 39708 ft | 451 kts | 271° |
| 2026-05-04 10:20 | 22.95843 | 67.48466 | 39708 ft | 451 kts | 271° |
| 2026-05-04 10:20 | 22.95844 | 67.41634 | 39709 ft | 451 kts | 271° |
| 2026-05-04 10:21 | 22.95842 | 67.34811 | 39711 ft | 451 kts | 271° |
| 2026-05-04 10:21 | 22.95838 | 67.27994 | 39711 ft | 451 kts | 271° |
| 2026-05-04 10:22 | 22.95826 | 67.17774 | 39713 ft | 451 kts | 271° |
| 2026-05-04 10:23 | 22.95814 | 67.11024 | 39706 ft | 452 kts | 271° |
| 2026-05-04 10:25 | 22.95847 | 66.83718 | 39714 ft | 452 kts | 272° |
| 2026-05-04 10:25 | 22.95896 | 66.76819 | 39715 ft | 453 kts | 272° |
| 2026-05-04 10:26 | 22.95934 | 66.70017 | 39717 ft | 453 kts | 272° |
| 2026-05-04 10:26 | 22.95967 | 66.63207 | 39714 ft | 453 kts | 272° |
| 2026-05-04 10:27 | 22.95996 | 66.56354 | 39716 ft | 453 kts | 272° |
| 2026-05-04 10:27 | 22.96023 | 66.49493 | 39716 ft | 453 kts | 272° |
| 2026-05-04 10:28 | 22.96047 | 66.42656 | 39716 ft | 453 kts | 272° |
| 2026-05-04 10:28 | 22.96069 | 66.35818 | 39716 ft | 453 kts | 272° |
| 2026-05-04 10:29 | 22.96087 | 66.29019 | 39717 ft | 453 kts | 272° |
| 2026-05-04 10:29 | 22.96102 | 66.22134 | 39718 ft | 453 kts | 272° |
| 2026-05-04 10:30 | 22.96114 | 66.15290 | 39715 ft | 453 kts | 272° |
| 2026-05-04 10:30 | 22.96124 | 66.08455 | 39719 ft | 453 kts | 272° |
| 2026-05-04 10:31 | 22.96130 | 66.01625 | 39720 ft | 453 kts | 271° |
| 2026-05-04 10:32 | 22.96130 | 65.77768 | 39722 ft | 452 kts | 271° |
| 2026-05-04 10:33 | 22.96124 | 65.70972 | 39722 ft | 452 kts | 271° |
| 2026-05-04 10:33 | 22.96114 | 65.64157 | 39722 ft | 452 kts | 271° |
| 2026-05-04 10:34 | 22.96102 | 65.57330 | 39721 ft | 451 kts | 271° |
| 2026-05-04 10:34 | 22.96086 | 65.50514 | 39724 ft | 451 kts | 271° |
| 2026-05-04 10:35 | 22.96068 | 65.43700 | 39720 ft | 451 kts | 271° |
| 2026-05-04 10:35 | 22.96047 | 65.36925 | 39725 ft | 451 kts | 271° |
| 2026-05-04 10:36 | 22.96023 | 65.30116 | 39726 ft | 451 kts | 271° |
| 2026-05-04 10:36 | 22.95996 | 65.23305 | 39724 ft | 451 kts | 271° |
| 2026-05-04 10:37 | 22.95966 | 65.16497 | 39724 ft | 451 kts | 271° |
| 2026-05-04 10:37 | 22.95933 | 65.09681 | 39723 ft | 451 kts | 271° |
| 2026-05-04 10:39 | 22.95797 | 64.85925 | 39729 ft | 451 kts | 271° |
| 2026-05-04 10:40 | 22.96223 | 64.79190 | 39726 ft | 449 kts | 277° |
| 2026-05-04 10:40 | 22.96923 | 64.72448 | 39727 ft | 449 kts | 278° |
| 2026-05-04 10:41 | 22.97650 | 64.65711 | 39730 ft | 449 kts | 278° |
| 2026-05-04 10:41 | 22.98369 | 64.58982 | 39730 ft | 449 kts | 277° |
| 2026-05-04 10:42 | 22.99082 | 64.52239 | 39732 ft | 449 kts | 277° |
| 2026-05-04 10:42 | 22.99788 | 64.45503 | 39730 ft | 449 kts | 277° |
| 2026-05-04 10:43 | 23.00493 | 64.38751 | 39730 ft | 449 kts | 277° |
| 2026-05-04 10:45 | 23.03164 | 64.12920 | 39730 ft | 449 kts | 277° |
| 2026-05-04 10:45 | 23.03851 | 64.06219 | 39728 ft | 449 kts | 277° |
| 2026-05-04 10:46 | 23.04538 | 63.99473 | 39734 ft | 449 kts | 277° |
| 2026-05-04 10:46 | 23.05223 | 63.92726 | 39731 ft | 449 kts | 277° |
| 2026-05-04 10:47 | 23.05802 | 63.85978 | 39736 ft | 450 kts | 273° |
| 2026-05-04 10:47 | 23.05941 | 63.79190 | 39732 ft | 450 kts | 272° |
| 2026-05-04 10:49 | 23.06218 | 63.52045 | 39732 ft | 450 kts | 272° |
| 2026-05-04 10:50 | 23.06285 | 63.45241 | 39733 ft | 450 kts | 272° |
| 2026-05-04 10:52 | 23.06521 | 63.18141 | 39730 ft | 450 kts | 272° |
| 2026-05-04 10:52 | 23.06573 | 63.11315 | 39731 ft | 450 kts | 272° |
| 2026-05-04 10:54 | 23.06752 | 62.84128 | 39729 ft | 450 kts | 272° |
| 2026-05-04 10:56 | 23.06884 | 62.56996 | 39727 ft | 449 kts | 272° |
| 2026-05-04 10:57 | 23.06910 | 62.50224 | 39727 ft | 449 kts | 272° |
| 2026-05-04 10:57 | 23.06933 | 62.43426 | 39726 ft | 449 kts | 272° |
| 2026-05-04 10:58 | 23.06953 | 62.36664 | 39727 ft | 449 kts | 272° |
| 2026-05-04 10:58 | 23.06970 | 62.29879 | 39725 ft | 449 kts | 272° |
| 2026-05-04 10:59 | 23.06984 | 62.23093 | 39725 ft | 449 kts | 272° |
| 2026-05-04 10:59 | 23.06996 | 62.16310 | 39722 ft | 449 kts | 272° |
| 2026-05-04 11:00 | 23.07004 | 62.09535 | 39721 ft | 449 kts | 272° |
| 2026-05-04 11:02 | 23.07009 | 61.82484 | 39722 ft | 448 kts | 272° |
| 2026-05-04 11:05 | 23.04761 | 61.31721 | 39716 ft | 452 kts | 264° |
| 2026-05-04 11:06 | 23.03858 | 61.24982 | 39717 ft | 452 kts | 264° |
| 2026-05-04 11:06 | 23.02955 | 61.18199 | 39715 ft | 453 kts | 264° |
| 2026-05-04 11:10 | 23.04423 | 60.71426 | 39713 ft | 448 kts | 285° |
| 2026-05-04 11:12 | 23.10771 | 60.45223 | 39711 ft | 449 kts | 285° |
| 2026-05-04 11:12 | 23.12345 | 60.38678 | 39709 ft | 449 kts | 285° |
| 2026-05-04 11:13 | 23.13922 | 60.32114 | 39711 ft | 449 kts | 285° |
| 2026-05-04 11:13 | 23.15494 | 60.25558 | 39713 ft | 449 kts | 285° |
| 2026-05-04 11:16 | 23.22790 | 59.94958 | 39708 ft | 450 kts | 285° |
| 2026-05-04 11:16 | 23.25193 | 59.84824 | 39708 ft | 448 kts | 284° |
| 2026-05-04 11:17 | 23.26767 | 59.79409 | 39686 ft | 443 kts | 301° |
| 2026-05-04 11:17 | 23.29812 | 59.72121 | 39704 ft | 449 kts | 279° |
| 2026-05-04 11:19 | 23.40680 | 59.18707 | 39717 ft | 449 kts | 285° |
| 2026-05-04 11:19 | 23.45071 | 59.06032 | 39720 ft | 449 kts | 294° |
| 2026-05-04 11:20 | 23.50179 | 58.93392 | 39722 ft | 463 kts | 290° |
| 2026-05-04 11:20 | 23.52635 | 58.79741 | 39728 ft | 463 kts | 278° |
| 2026-05-04 11:22 | 23.59743 | 58.24195 | 39722 ft | 461 kts | 287° |
| 2026-05-04 11:23 | 23.63697 | 58.10972 | 39725 ft | 460 kts | 288° |
| 2026-05-04 11:25 | 23.72542 | 57.78571 | 39736 ft | 460 kts | 282° |
| 2026-05-04 11:25 | 23.74429 | 57.69362 | 39736 ft | 460 kts | 283° |
| 2026-05-04 11:27 | 23.88169 | 57.05584 | 39750 ft | 458 kts | 283° |
| 2026-05-04 11:28 | 23.91058 | 56.91999 | 39757 ft | 458 kts | 283° |
| 2026-05-04 11:28 | 23.93444 | 56.80727 | 39766 ft | 458 kts | 283° |
| 2026-05-04 11:29 | 23.96303 | 56.67171 | 39778 ft | 457 kts | 283° |
| 2026-05-04 11:29 | 23.99153 | 56.53593 | 39791 ft | 457 kts | 283° |